sensor_id;sensor_type;location;lat;lon;timestamp;pressure;altitude;pressure_sealevel;temperature;humidity
70256;BME280;57669;52.624;-1.688;2023-01-30T00:00:51;101389.70;;;6.81;63.04
70256;BME280;57669;52.624;-1.688;2023-01-30T00:03:16;101400.22;;;6.90;61.74
70256;BME280;57669;52.624;-1.688;2023-01-30T00:05:42;101406.83;;;6.13;64.25
70256;BME280;57669;52.624;-1.688;2023-01-30T00:08:08;101414.00;;;6.57;64.21
70256;BME280;57669;52.624;-1.688;2023-01-30T00:10:34;101408.67;;;6.46;64.66
70256;BME280;57669;52.624;-1.688;2023-01-30T00:13:00;101412.43;;;6.20;64.72
70256;BME280;57669;52.624;-1.688;2023-01-30T00:15:25;101413.09;;;5.86;66.53
70256;BME280;57669;52.624;-1.688;2023-01-30T00:17:51;101415.49;;;6.29;65.98
70256;BME280;57669;52.624;-1.688;2023-01-30T00:20:18;101428.86;;;6.48;66.40
70256;BME280;57669;52.624;-1.688;2023-01-30T00:22:42;101431.52;;;6.52;65.45
70256;BME280;57669;52.624;-1.688;2023-01-30T00:25:08;101443.81;;;6.49;65.30
70256;BME280;57669;52.624;-1.688;2023-01-30T00:27:34;101450.46;;;6.27;65.84
70256;BME280;57669;52.624;-1.688;2023-01-30T00:30:00;101453.94;;;5.69;67.04
70256;BME280;57669;52.624;-1.688;2023-01-30T00:32:25;101444.77;;;5.36;68.26
70256;BME280;57669;52.624;-1.688;2023-01-30T00:34:51;101445.51;;;5.41;67.09
70256;BME280;57669;52.624;-1.688;2023-01-30T00:37:16;101437.79;;;5.10;67.28
70256;BME280;57669;52.624;-1.688;2023-01-30T00:39:42;101446.54;;;5.33;66.38
70256;BME280;57669;52.624;-1.688;2023-01-30T00:42:08;101432.20;;;5.94;64.98
70256;BME280;57669;52.624;-1.688;2023-01-30T00:44:34;101437.89;;;5.90;64.50
70256;BME280;57669;52.624;-1.688;2023-01-30T00:47:00;101431.33;;;5.67;63.75
70256;BME280;57669;52.624;-1.688;2023-01-30T00:49:25;101430.12;;;6.05;62.58
70256;BME280;57669;52.624;-1.688;2023-01-30T00:51:50;101427.03;;;5.83;62.94
70256;BME280;57669;52.624;-1.688;2023-01-30T00:54:16;101429.92;;;5.37;62.56
70256;BME280;57669;52.624;-1.688;2023-01-30T00:56:41;101434.92;;;5.68;61.43
70256;BME280;57669;52.624;-1.688;2023-01-30T00:59:07;101443.55;;;5.87;61.28
70256;BME280;57669;52.624;-1.688;2023-01-30T01:01:32;101445.02;;;5.93;60.94
70256;BME280;57669;52.624;-1.688;2023-01-30T01:03:58;101441.03;;;5.59;61.07
70256;BME280;57669;52.624;-1.688;2023-01-30T01:06:24;101451.13;;;6.16;60.36
70256;BME280;57669;52.624;-1.688;2023-01-30T01:08:48;101457.41;;;5.98;59.89
70256;BME280;57669;52.624;-1.688;2023-01-30T01:11:14;101452.87;;;5.93;59.42
70256;BME280;57669;52.624;-1.688;2023-01-30T01:13:39;101453.27;;;6.04;59.21
70256;BME280;57669;52.624;-1.688;2023-01-30T01:16:05;101450.69;;;5.82;59.23
70256;BME280;57669;52.624;-1.688;2023-01-30T01:18:29;101455.82;;;5.42;59.39
70256;BME280;57669;52.624;-1.688;2023-01-30T01:20:55;101452.57;;;5.43;60.48
70256;BME280;57669;52.624;-1.688;2023-01-30T01:23:21;101457.76;;;5.70;59.34
70256;BME280;57669;52.624;-1.688;2023-01-30T01:25:46;101451.96;;;6.22;58.27
70256;BME280;57669;52.624;-1.688;2023-01-30T01:28:12;101461.09;;;6.19;57.98
70256;BME280;57669;52.624;-1.688;2023-01-30T01:30:37;101456.60;;;5.93;58.51
70256;BME280;57669;52.624;-1.688;2023-01-30T01:33:03;101461.64;;;6.30;56.79
70256;BME280;57669;52.624;-1.688;2023-01-30T01:35:29;101469.93;;;6.46;55.33
70256;BME280;57669;52.624;-1.688;2023-01-30T01:37:54;101467.64;;;5.63;56.30
70256;BME280;57669;52.624;-1.688;2023-01-30T01:40:21;101465.95;;;5.64;56.99
70256;BME280;57669;52.624;-1.688;2023-01-30T01:42:46;101464.87;;;6.03;55.68
70256;BME280;57669;52.624;-1.688;2023-01-30T01:45:17;101472.14;;;6.04;55.42
70256;BME280;57669;52.624;-1.688;2023-01-30T01:47:39;101479.92;;;6.00;55.75
70256;BME280;57669;52.624;-1.688;2023-01-30T01:50:03;101482.72;;;5.91;54.74
70256;BME280;57669;52.624;-1.688;2023-01-30T01:52:28;101493.49;;;5.60;55.72
70256;BME280;57669;52.624;-1.688;2023-01-30T01:54:56;101499.92;;;5.14;55.65
70256;BME280;57669;52.624;-1.688;2023-01-30T01:57:23;101502.69;;;5.61;54.49
70256;BME280;57669;52.624;-1.688;2023-01-30T01:59:47;101511.70;;;6.13;53.62
70256;BME280;57669;52.624;-1.688;2023-01-30T02:02:11;101520.49;;;5.64;53.43
70256;BME280;57669;52.624;-1.688;2023-01-30T02:04:37;101529.13;;;5.97;52.52
70256;BME280;57669;52.624;-1.688;2023-01-30T02:07:01;101528.49;;;5.73;52.50
70256;BME280;57669;52.624;-1.688;2023-01-30T02:09:26;101533.50;;;5.91;52.78
70256;BME280;57669;52.624;-1.688;2023-01-30T02:11:55;101528.47;;;5.46;52.29
70256;BME280;57669;52.624;-1.688;2023-01-30T02:14:18;101539.01;;;5.41;52.96
70256;BME280;57669;52.624;-1.688;2023-01-30T02:16:44;101539.38;;;5.97;51.46
70256;BME280;57669;52.624;-1.688;2023-01-30T02:19:20;101530.35;;;6.00;51.29
70256;BME280;57669;52.624;-1.688;2023-01-30T02:21:49;101526.00;;;5.36;50.65
70256;BME280;57669;52.624;-1.688;2023-01-30T02:26:40;101535.62;;;5.22;51.19
70256;BME280;57669;52.624;-1.688;2023-01-30T02:31:23;101543.23;;;5.40;50.07
70256;BME280;57669;52.624;-1.688;2023-01-30T02:33:48;101539.60;;;5.55;49.25
70256;BME280;57669;52.624;-1.688;2023-01-30T02:36:14;101544.17;;;5.22;48.93
70256;BME280;57669;52.624;-1.688;2023-01-30T02:38:38;101549.22;;;4.64;49.94
70256;BME280;57669;52.624;-1.688;2023-01-30T02:41:05;101555.15;;;4.81;49.85
70256;BME280;57669;52.624;-1.688;2023-01-30T02:43:30;101545.77;;;4.01;50.77
70256;BME280;57669;52.624;-1.688;2023-01-30T02:45:55;101545.82;;;3.92;50.87
70256;BME280;57669;52.624;-1.688;2023-01-30T02:48:18;101536.98;;;4.53;48.80
70256;BME280;57669;52.624;-1.688;2023-01-30T02:50:45;101535.00;;;4.53;48.53
70256;BME280;57669;52.624;-1.688;2023-01-30T02:53:06;101542.14;;;4.31;48.86
70256;BME280;57669;52.624;-1.688;2023-01-30T02:55:31;101528.51;;;4.05;49.65
70256;BME280;57669;52.624;-1.688;2023-01-30T02:57:57;101541.19;;;4.41;49.18
70256;BME280;57669;52.624;-1.688;2023-01-30T03:00:30;101533.24;;;4.29;49.82
70256;BME280;57669;52.624;-1.688;2023-01-30T03:03:00;101530.54;;;3.69;49.65
70256;BME280;57669;52.624;-1.688;2023-01-30T03:05:24;101526.03;;;3.42;50.71
70256;BME280;57669;52.624;-1.688;2023-01-30T03:07:43;101527.59;;;3.59;50.93
70256;BME280;57669;52.624;-1.688;2023-01-30T03:10:08;101529.06;;;3.54;50.57
70256;BME280;57669;52.624;-1.688;2023-01-30T03:12:37;101533.82;;;3.72;50.29
70256;BME280;57669;52.624;-1.688;2023-01-30T03:14:59;101532.90;;;4.37;49.14
70256;BME280;57669;52.624;-1.688;2023-01-30T03:17:20;101533.47;;;3.44;50.93
70256;BME280;57669;52.624;-1.688;2023-01-30T03:19:43;101540.60;;;3.69;51.12
70256;BME280;57669;52.624;-1.688;2023-01-30T03:22:08;101544.24;;;3.77;50.65
70256;BME280;57669;52.624;-1.688;2023-01-30T03:24:33;101541.68;;;3.74;50.63
70256;BME280;57669;52.624;-1.688;2023-01-30T03:27:02;101536.97;;;3.73;51.15
70256;BME280;57669;52.624;-1.688;2023-01-30T03:29:23;101552.41;;;3.62;51.21
70256;BME280;57669;52.624;-1.688;2023-01-30T03:31:48;101549.92;;;3.16;51.59
70256;BME280;57669;52.624;-1.688;2023-01-30T03:34:13;101551.53;;;4.14;50.01
70256;BME280;57669;52.624;-1.688;2023-01-30T03:36:39;101553.01;;;3.13;52.31
70256;BME280;57669;52.624;-1.688;2023-01-30T03:39:04;101551.91;;;2.86;52.57
70256;BME280;57669;52.624;-1.688;2023-01-30T03:41:29;101554.27;;;3.29;52.26
70256;BME280;57669;52.624;-1.688;2023-01-30T03:43:55;101553.86;;;3.23;51.87
70256;BME280;57669;52.624;-1.688;2023-01-30T03:46:20;101544.93;;;3.27;52.77
70256;BME280;57669;52.624;-1.688;2023-01-30T03:48:45;101562.42;;;3.17;51.96
70256;BME280;57669;52.624;-1.688;2023-01-30T03:51:10;101571.10;;;3.32;52.03
70256;BME280;57669;52.624;-1.688;2023-01-30T03:53:36;101565.59;;;3.02;52.01
70256;BME280;57669;52.624;-1.688;2023-01-30T03:56:01;101571.37;;;2.88;52.50
70256;BME280;57669;52.624;-1.688;2023-01-30T03:58:26;101582.30;;;3.41;51.71
70256;BME280;57669;52.624;-1.688;2023-01-30T04:00:51;101583.78;;;3.06;51.89
70256;BME280;57669;52.624;-1.688;2023-01-30T04:03:16;101588.02;;;2.89;52.38
70256;BME280;57669;52.624;-1.688;2023-01-30T04:05:42;101596.16;;;2.96;52.73
70256;BME280;57669;52.624;-1.688;2023-01-30T04:08:07;101607.46;;;2.70;52.17
70256;BME280;57669;52.624;-1.688;2023-01-30T04:10:32;101612.66;;;3.32;51.07
70256;BME280;57669;52.624;-1.688;2023-01-30T04:12:57;101600.52;;;3.71;49.82
70256;BME280;57669;52.624;-1.688;2023-01-30T04:15:22;101591.43;;;3.37;50.36
70256;BME280;57669;52.624;-1.688;2023-01-30T04:17:47;101596.37;;;2.96;51.49
70256;BME280;57669;52.624;-1.688;2023-01-30T04:20:12;101601.01;;;3.11;51.78
70256;BME280;57669;52.624;-1.688;2023-01-30T04:22:37;101594.30;;;3.43;51.61
70256;BME280;57669;52.624;-1.688;2023-01-30T04:25:03;101605.55;;;3.46;50.76
70256;BME280;57669;52.624;-1.688;2023-01-30T04:27:27;101605.45;;;3.13;50.96
70256;BME280;57669;52.624;-1.688;2023-01-30T04:29:52;101605.63;;;3.03;51.70
70256;BME280;57669;52.624;-1.688;2023-01-30T04:32:17;101614.62;;;3.40;51.71
70256;BME280;57669;52.624;-1.688;2023-01-30T04:34:43;101610.06;;;3.20;52.02
70256;BME280;57669;52.624;-1.688;2023-01-30T04:37:08;101611.42;;;2.56;52.04
70256;BME280;57669;52.624;-1.688;2023-01-30T04:39:33;101611.53;;;3.37;50.84
70256;BME280;57669;52.624;-1.688;2023-01-30T04:41:58;101616.91;;;2.68;51.63
70256;BME280;57669;52.624;-1.688;2023-01-30T04:44:24;101612.19;;;2.82;51.46
70256;BME280;57669;52.624;-1.688;2023-01-30T04:46:49;101605.74;;;3.52;50.53
70256;BME280;57669;52.624;-1.688;2023-01-30T04:49:15;101607.52;;;3.40;50.62
70256;BME280;57669;52.624;-1.688;2023-01-30T04:51:40;101611.14;;;2.98;51.22
70256;BME280;57669;52.624;-1.688;2023-01-30T04:54:05;101618.94;;;3.23;51.28
70256;BME280;57669;52.624;-1.688;2023-01-30T04:56:30;101613.30;;;2.95;51.74
70256;BME280;57669;52.624;-1.688;2023-01-30T04:58:55;101605.71;;;2.75;52.51
70256;BME280;57669;52.624;-1.688;2023-01-30T05:01:22;101601.77;;;2.57;53.11
70256;BME280;57669;52.624;-1.688;2023-01-30T05:03:49;101604.58;;;2.79;51.55
70256;BME280;57669;52.624;-1.688;2023-01-30T05:06:10;101606.37;;;2.43;52.50
70256;BME280;57669;52.624;-1.688;2023-01-30T05:08:36;101612.09;;;3.12;51.96
70256;BME280;57669;52.624;-1.688;2023-01-30T05:11:01;101621.01;;;3.16;51.21
70256;BME280;57669;52.624;-1.688;2023-01-30T05:13:26;101617.31;;;3.44;50.29
70256;BME280;57669;52.624;-1.688;2023-01-30T05:15:51;101621.78;;;3.11;50.87
70256;BME280;57669;52.624;-1.688;2023-01-30T05:18:16;101626.10;;;3.41;50.79
70256;BME280;57669;52.624;-1.688;2023-01-30T05:20:47;101629.35;;;3.26;50.99
70256;BME280;57669;52.624;-1.688;2023-01-30T05:25:32;101637.77;;;2.12;53.61
70256;BME280;57669;52.624;-1.688;2023-01-30T05:27:57;101641.07;;;2.57;53.36
70256;BME280;57669;52.624;-1.688;2023-01-30T05:30:22;101650.35;;;3.00;51.80
70256;BME280;57669;52.624;-1.688;2023-01-30T05:32:47;101655.93;;;3.08;51.68
70256;BME280;57669;52.624;-1.688;2023-01-30T05:35:12;101664.56;;;3.49;50.99
70256;BME280;57669;52.624;-1.688;2023-01-30T05:37:38;101670.54;;;3.35;50.21
70256;BME280;57669;52.624;-1.688;2023-01-30T05:40:04;101671.50;;;2.84;51.83
70256;BME280;57669;52.624;-1.688;2023-01-30T05:42:28;101678.85;;;3.24;51.09
70256;BME280;57669;52.624;-1.688;2023-01-30T05:44:53;101684.97;;;3.23;51.24
70256;BME280;57669;52.624;-1.688;2023-01-30T05:47:18;101689.33;;;3.28;50.84
70256;BME280;57669;52.624;-1.688;2023-01-30T05:49:43;101677.23;;;2.96;52.51
70256;BME280;57669;52.624;-1.688;2023-01-30T05:52:08;101684.69;;;2.76;52.74
70256;BME280;57669;52.624;-1.688;2023-01-30T05:54:34;101670.76;;;3.09;51.43
70256;BME280;57669;52.624;-1.688;2023-01-30T05:56:59;101677.03;;;2.87;52.95
70256;BME280;57669;52.624;-1.688;2023-01-30T05:59:24;101677.18;;;2.90;52.75
70256;BME280;57669;52.624;-1.688;2023-01-30T06:01:49;101676.45;;;3.04;52.89
70256;BME280;57669;52.624;-1.688;2023-01-30T06:04:14;101667.55;;;2.80;53.29
70256;BME280;57669;52.624;-1.688;2023-01-30T06:06:39;101674.87;;;3.41;51.80
70256;BME280;57669;52.624;-1.688;2023-01-30T06:09:04;101679.30;;;2.75;52.86
70256;BME280;57669;52.624;-1.688;2023-01-30T06:11:29;101681.04;;;3.05;52.95
70256;BME280;57669;52.624;-1.688;2023-01-30T06:13:55;101683.56;;;2.61;52.96
70256;BME280;57669;52.624;-1.688;2023-01-30T06:16:20;101686.77;;;3.25;51.82
70256;BME280;57669;52.624;-1.688;2023-01-30T06:18:45;101693.74;;;3.19;52.00
70256;BME280;57669;52.624;-1.688;2023-01-30T06:21:10;101690.71;;;2.79;52.34
70256;BME280;57669;52.624;-1.688;2023-01-30T06:23:35;101690.99;;;3.20;51.86
70256;BME280;57669;52.624;-1.688;2023-01-30T06:26:00;101692.62;;;2.96;52.66
70256;BME280;57669;52.624;-1.688;2023-01-30T06:28:25;101702.45;;;2.59;53.00
70256;BME280;57669;52.624;-1.688;2023-01-30T06:30:51;101715.24;;;3.04;52.73
70256;BME280;57669;52.624;-1.688;2023-01-30T06:33:15;101719.24;;;3.32;51.63
70256;BME280;57669;52.624;-1.688;2023-01-30T06:35:41;101714.18;;;2.74;52.38
70256;BME280;57669;52.624;-1.688;2023-01-30T06:38:05;101716.34;;;3.38;51.89
70256;BME280;57669;52.624;-1.688;2023-01-30T06:40:31;101724.26;;;2.82;53.45
70256;BME280;57669;52.624;-1.688;2023-01-30T06:42:56;101728.00;;;2.89;53.86
70256;BME280;57669;52.624;-1.688;2023-01-30T06:45:21;101737.57;;;3.30;52.97
70256;BME280;57669;52.624;-1.688;2023-01-30T06:47:47;101742.65;;;3.58;52.64
70256;BME280;57669;52.624;-1.688;2023-01-30T06:50:13;101743.35;;;3.11;52.60
70256;BME280;57669;52.624;-1.688;2023-01-30T06:52:40;101740.81;;;3.39;52.52
70256;BME280;57669;52.624;-1.688;2023-01-30T06:55:01;101735.85;;;3.69;51.49
70256;BME280;57669;52.624;-1.688;2023-01-30T06:57:26;101736.21;;;3.93;51.11
70256;BME280;57669;52.624;-1.688;2023-01-30T06:59:51;101751.46;;;3.28;52.36
70256;BME280;57669;52.624;-1.688;2023-01-30T07:02:16;101756.94;;;3.59;52.33
70256;BME280;57669;52.624;-1.688;2023-01-30T07:04:42;101755.13;;;3.71;51.56
70256;BME280;57669;52.624;-1.688;2023-01-30T07:07:07;101758.58;;;3.01;53.05
70256;BME280;57669;52.624;-1.688;2023-01-30T07:09:32;101755.46;;;3.24;52.36
70256;BME280;57669;52.624;-1.688;2023-01-30T07:11:58;101756.94;;;3.77;51.57
70256;BME280;57669;52.624;-1.688;2023-01-30T07:14:23;101750.56;;;4.13;50.78
70256;BME280;57669;52.624;-1.688;2023-01-30T07:16:48;101753.40;;;3.76;50.52
70256;BME280;57669;52.624;-1.688;2023-01-30T07:19:13;101762.69;;;3.49;51.93
70256;BME280;57669;52.624;-1.688;2023-01-30T07:21:38;101763.40;;;3.86;51.35
70256;BME280;57669;52.624;-1.688;2023-01-30T07:24:04;101765.13;;;3.97;51.21
70256;BME280;57669;52.624;-1.688;2023-01-30T07:26:29;101763.18;;;2.83;53.51
70256;BME280;57669;52.624;-1.688;2023-01-30T07:28:54;101757.90;;;3.55;52.14
70256;BME280;57669;52.624;-1.688;2023-01-30T07:31:19;101749.87;;;3.53;52.43
70256;BME280;57669;52.624;-1.688;2023-01-30T07:33:44;101745.13;;;3.49;52.53
70256;BME280;57669;52.624;-1.688;2023-01-30T07:36:09;101750.71;;;3.91;51.75
70256;BME280;57669;52.624;-1.688;2023-01-30T07:38:34;101754.84;;;3.32;52.73
70256;BME280;57669;52.624;-1.688;2023-01-30T07:40:59;101761.75;;;3.67;52.04
70256;BME280;57669;52.624;-1.688;2023-01-30T07:43:24;101772.45;;;3.21;53.14
70256;BME280;57669;52.624;-1.688;2023-01-30T07:45:50;101781.73;;;3.23;53.21
70256;BME280;57669;52.624;-1.688;2023-01-30T07:48:17;101795.75;;;2.88;53.86
70256;BME280;57669;52.624;-1.688;2023-01-30T07:50:41;101800.01;;;3.51;52.78
70256;BME280;57669;52.624;-1.688;2023-01-30T07:53:08;101794.16;;;3.98;51.97
70256;BME280;57669;52.624;-1.688;2023-01-30T07:55:32;101796.46;;;3.80;52.13
70256;BME280;57669;52.624;-1.688;2023-01-30T07:57:57;101796.41;;;3.02;53.49
70256;BME280;57669;52.624;-1.688;2023-01-30T08:00:22;101800.52;;;3.27;53.39
70256;BME280;57669;52.624;-1.688;2023-01-30T08:02:47;101811.14;;;3.36;53.31
70256;BME280;57669;52.624;-1.688;2023-01-30T08:05:13;101816.10;;;3.41;53.35
70256;BME280;57669;52.624;-1.688;2023-01-30T08:07:38;101816.92;;;3.61;52.93
70256;BME280;57669;52.624;-1.688;2023-01-30T08:10:03;101814.13;;;3.17;53.65
70256;BME280;57669;52.624;-1.688;2023-01-30T08:12:28;101815.10;;;3.65;52.86
70256;BME280;57669;52.624;-1.688;2023-01-30T08:14:54;101822.42;;;3.46;53.35
70256;BME280;57669;52.624;-1.688;2023-01-30T08:17:19;101821.07;;;3.53;53.19
70256;BME280;57669;52.624;-1.688;2023-01-30T08:19:44;101823.51;;;3.49;53.95
70256;BME280;57669;52.624;-1.688;2023-01-30T08:22:09;101818.02;;;2.78;55.13
70256;BME280;57669;52.624;-1.688;2023-01-30T08:24:34;101818.46;;;3.93;53.22
70256;BME280;57669;52.624;-1.688;2023-01-30T08:26:59;101831.56;;;3.72;53.22
70256;BME280;57669;52.624;-1.688;2023-01-30T08:29:24;101848.85;;;3.59;54.02
70256;BME280;57669;52.624;-1.688;2023-01-30T08:31:49;101853.43;;;3.69;53.79
70256;BME280;57669;52.624;-1.688;2023-01-30T08:34:14;101848.40;;;3.55;53.71
70256;BME280;57669;52.624;-1.688;2023-01-30T08:36:39;101845.52;;;4.01;53.21
70256;BME280;57669;52.624;-1.688;2023-01-30T08:39:04;101856.15;;;3.54;53.83
70256;BME280;57669;52.624;-1.688;2023-01-30T08:41:30;101859.91;;;3.47;54.36
70256;BME280;57669;52.624;-1.688;2023-01-30T08:43:56;101870.58;;;3.48;54.41
70256;BME280;57669;52.624;-1.688;2023-01-30T08:46:21;101881.67;;;3.55;54.52
70256;BME280;57669;52.624;-1.688;2023-01-30T08:48:47;101896.07;;;3.37;54.69
70256;BME280;57669;52.624;-1.688;2023-01-30T08:51:11;101894.51;;;3.46;53.93
70256;BME280;57669;52.624;-1.688;2023-01-30T08:53:37;101893.40;;;3.77;54.11
70256;BME280;57669;52.624;-1.688;2023-01-30T08:56:03;101896.18;;;2.66;55.91
70256;BME280;57669;52.624;-1.688;2023-01-30T08:58:27;101899.54;;;3.41;55.04
70256;BME280;57669;52.624;-1.688;2023-01-30T09:00:52;101897.66;;;3.21;55.10
70256;BME280;57669;52.624;-1.688;2023-01-30T09:03:18;101894.67;;;2.87;55.73
70256;BME280;57669;52.624;-1.688;2023-01-30T09:05:44;101881.86;;;3.15;55.45
70256;BME280;57669;52.624;-1.688;2023-01-30T09:08:09;101874.11;;;3.16;55.05
70256;BME280;57669;52.624;-1.688;2023-01-30T09:10:34;101877.20;;;3.25;55.91
70256;BME280;57669;52.624;-1.688;2023-01-30T09:12:59;101876.22;;;3.56;54.89
70256;BME280;57669;52.624;-1.688;2023-01-30T09:15:25;101884.22;;;3.11;55.95
70256;BME280;57669;52.624;-1.688;2023-01-30T09:17:50;101887.59;;;3.27;56.19
70256;BME280;57669;52.624;-1.688;2023-01-30T09:20:16;101892.47;;;3.43;55.92
70256;BME280;57669;52.624;-1.688;2023-01-30T09:22:40;101906.61;;;3.47;55.25
70256;BME280;57669;52.624;-1.688;2023-01-30T09:25:06;101909.45;;;3.37;55.12
70256;BME280;57669;52.624;-1.688;2023-01-30T09:27:30;101907.22;;;3.49;55.65
70256;BME280;57669;52.624;-1.688;2023-01-30T09:29:56;101903.25;;;3.29;56.13
70256;BME280;57669;52.624;-1.688;2023-01-30T09:32:21;101908.87;;;2.74;57.87
70256;BME280;57669;52.624;-1.688;2023-01-30T09:34:56;101902.02;;;3.01;57.18
70256;BME280;57669;52.624;-1.688;2023-01-30T09:37:12;101900.89;;;2.67;57.94
70256;BME280;57669;52.624;-1.688;2023-01-30T09:39:37;101896.17;;;3.36;56.51
70256;BME280;57669;52.624;-1.688;2023-01-30T09:44:42;101900.10;;;2.56;58.28
70256;BME280;57669;52.624;-1.688;2023-01-30T09:46:57;101897.33;;;2.78;58.01
70256;BME280;57669;52.624;-1.688;2023-01-30T09:49:27;101889.78;;;2.94;57.77
70256;BME280;57669;52.624;-1.688;2023-01-30T09:51:51;101901.39;;;2.93;57.69
70256;BME280;57669;52.624;-1.688;2023-01-30T09:54:17;101902.24;;;3.05;57.56
70256;BME280;57669;52.624;-1.688;2023-01-30T09:56:33;101916.93;;;2.95;57.20
70256;BME280;57669;52.624;-1.688;2023-01-30T09:59:01;101902.87;;;3.05;56.00
70256;BME280;57669;52.624;-1.688;2023-01-30T10:01:29;101914.65;;;3.27;56.84
70256;BME280;57669;52.624;-1.688;2023-01-30T10:04:00;101908.63;;;3.59;56.19
70256;BME280;57669;52.624;-1.688;2023-01-30T10:06:15;101914.91;;;3.59;56.02
70256;BME280;57669;52.624;-1.688;2023-01-30T10:08:49;101922.46;;;3.24;56.91
70256;BME280;57669;52.624;-1.688;2023-01-30T10:11:14;101923.19;;;2.98;58.07
70256;BME280;57669;52.624;-1.688;2023-01-30T10:13:42;101920.13;;;3.43;57.22
70256;BME280;57669;52.624;-1.688;2023-01-30T10:16:03;101929.56;;;2.68;58.13
70256;BME280;57669;52.624;-1.688;2023-01-30T10:18:33;101934.31;;;3.22;57.18
70256;BME280;57669;52.624;-1.688;2023-01-30T10:20:51;101943.34;;;3.68;56.75
70256;BME280;57669;52.624;-1.688;2023-01-30T10:23:23;101948.36;;;3.24;56.65
70256;BME280;57669;52.624;-1.688;2023-01-30T10:25:42;101961.33;;;3.59;55.97
70256;BME280;57669;52.624;-1.688;2023-01-30T10:28:08;101962.17;;;3.97;54.74
70256;BME280;57669;52.624;-1.688;2023-01-30T10:30:28;101961.50;;;4.26;55.18
70256;BME280;57669;52.624;-1.688;2023-01-30T10:32:57;101963.11;;;4.40;54.19
70256;BME280;57669;52.624;-1.688;2023-01-30T10:35:21;101959.18;;;4.83;53.54
70256;BME280;57669;52.624;-1.688;2023-01-30T10:37:52;101964.64;;;4.75;53.35
70256;BME280;57669;52.624;-1.688;2023-01-30T10:40:17;101968.40;;;5.10;52.17
70256;BME280;57669;52.624;-1.688;2023-01-30T10:42:38;101982.60;;;4.32;53.67
70256;BME280;57669;52.624;-1.688;2023-01-30T10:45:09;101981.54;;;4.93;52.30
70256;BME280;57669;52.624;-1.688;2023-01-30T10:47:36;101981.19;;;4.91;52.35
70256;BME280;57669;52.624;-1.688;2023-01-30T10:49:54;101979.99;;;4.50;53.87
70256;BME280;57669;52.624;-1.688;2023-01-30T10:52:28;101979.11;;;4.29;54.83
70256;BME280;57669;52.624;-1.688;2023-01-30T10:54:52;101982.84;;;4.54;53.97
70256;BME280;57669;52.624;-1.688;2023-01-30T10:57:16;101981.04;;;4.53;53.89
70256;BME280;57669;52.624;-1.688;2023-01-30T10:59:45;101977.73;;;4.19;54.07
70256;BME280;57669;52.624;-1.688;2023-01-30T11:02:09;101993.47;;;4.23;54.68
70256;BME280;57669;52.624;-1.688;2023-01-30T11:04:29;101979.15;;;4.49;54.37
70256;BME280;57669;52.624;-1.688;2023-01-30T11:06:51;101980.55;;;4.78;53.71
70256;BME280;57669;52.624;-1.688;2023-01-30T11:09:16;101984.46;;;4.90;53.65
70256;BME280;57669;52.624;-1.688;2023-01-30T11:11:48;101976.50;;;4.39;54.54
70256;BME280;57669;52.624;-1.688;2023-01-30T11:14:07;101982.20;;;4.98;53.50
70256;BME280;57669;52.624;-1.688;2023-01-30T11:16:39;101976.23;;;3.73;55.49
70256;BME280;57669;52.624;-1.688;2023-01-30T11:18:57;101977.02;;;4.30;54.86
70256;BME280;57669;52.624;-1.688;2023-01-30T11:21:25;101977.69;;;4.36;55.10
70256;BME280;57669;52.624;-1.688;2023-01-30T11:23:48;101984.47;;;4.65;54.28
70256;BME280;57669;52.624;-1.688;2023-01-30T11:26:19;101989.38;;;4.92;53.58
70256;BME280;57669;52.624;-1.688;2023-01-30T11:28:41;102007.82;;;4.86;53.00
70256;BME280;57669;52.624;-1.688;2023-01-30T11:33:32;101996.99;;;5.06;52.74
70256;BME280;57669;52.624;-1.688;2023-01-30T11:35:58;101995.99;;;5.11;52.74
70256;BME280;57669;52.624;-1.688;2023-01-30T11:38:24;101985.42;;;4.39;54.67
70256;BME280;57669;52.624;-1.688;2023-01-30T11:40:47;101984.06;;;4.61;54.21
70256;BME280;57669;52.624;-1.688;2023-01-30T11:43:14;101978.76;;;4.96;54.08
70256;BME280;57669;52.624;-1.688;2023-01-30T11:45:41;101979.70;;;5.15;53.74
70256;BME280;57669;52.624;-1.688;2023-01-30T11:48:12;101980.54;;;4.50;54.25
70256;BME280;57669;52.624;-1.688;2023-01-30T11:50:32;101971.80;;;5.42;52.94
70256;BME280;57669;52.624;-1.688;2023-01-30T11:53:00;101966.60;;;5.40;52.36
70256;BME280;57669;52.624;-1.688;2023-01-30T11:55:21;101981.54;;;4.89;53.12
70256;BME280;57669;52.624;-1.688;2023-01-30T11:57:48;101975.08;;;4.89;53.22
70256;BME280;57669;52.624;-1.688;2023-01-30T12:00:16;101987.71;;;5.05;52.49
70256;BME280;57669;52.624;-1.688;2023-01-30T12:02:38;101984.33;;;5.21;52.79
70256;BME280;57669;52.624;-1.688;2023-01-30T12:05:06;101980.23;;;5.68;51.63
70256;BME280;57669;52.624;-1.688;2023-01-30T12:07:32;101981.49;;;5.30;52.11
70256;BME280;57669;52.624;-1.688;2023-01-30T12:09:57;101972.26;;;5.90;51.06
70256;BME280;57669;52.624;-1.688;2023-01-30T12:12:28;101977.15;;;5.51;50.82
70256;BME280;57669;52.624;-1.688;2023-01-30T12:14:48;101974.88;;;5.31;52.25
70256;BME280;57669;52.624;-1.688;2023-01-30T12:17:17;101979.83;;;5.06;52.58
70256;BME280;57669;52.624;-1.688;2023-01-30T12:19:45;101977.71;;;5.31;52.35
70256;BME280;57669;52.624;-1.688;2023-01-30T12:22:10;101971.23;;;5.59;51.50
70256;BME280;57669;52.624;-1.688;2023-01-30T12:24:35;101977.03;;;5.36;51.80
70256;BME280;57669;52.624;-1.688;2023-01-30T12:26:57;101981.58;;;5.19;51.97
70256;BME280;57669;52.624;-1.688;2023-01-30T12:31:47;101993.26;;;5.28;52.47
70256;BME280;57669;52.624;-1.688;2023-01-30T12:34:20;101998.86;;;5.85;50.78
70256;BME280;57669;52.624;-1.688;2023-01-30T12:36:43;101999.34;;;5.81;49.98
70256;BME280;57669;52.624;-1.688;2023-01-30T12:39:13;101994.90;;;6.88;48.05
70256;BME280;57669;52.624;-1.688;2023-01-30T12:41:40;101991.79;;;7.15;46.90
70256;BME280;57669;52.624;-1.688;2023-01-30T12:44:08;101993.54;;;7.98;45.64
70256;BME280;57669;52.624;-1.688;2023-01-30T12:46:32;101981.72;;;7.88;45.16
70256;BME280;57669;52.624;-1.688;2023-01-30T12:48:53;101986.26;;;7.87;45.31
70256;BME280;57669;52.624;-1.688;2023-01-30T12:51:19;101985.45;;;7.27;45.76
70256;BME280;57669;52.624;-1.688;2023-01-30T12:53:43;101980.00;;;7.24;45.63